Flight Track Log - Related Links

Times and Time Zones

All times are in EDT time to prevent confusion due to time zone crossing. See the SWA378 flight status page for this flight to view local times or setup timezone preferences in your user account.

Time Position Orientation Groundspeed Altitude Reporting Facility
EDT Latitude Longitude Course Direction KTS MPH feet Rate Location/Type
Thu 08:23:26 PM 36.8636 -76.2281 206° Southwest 154 177 2,000  Level Washington Center
Thu 08:24:27 PM 36.8383 -76.2822 240° Southwest 207 238 4,000 2,143 Climbing Washington Center
Thu 08:25:18 PM 36.8694 -76.3267 311° West 232 267 6,000 3,429 Climbing Washington Center
Thu 08:26:19 PM 36.9086 -76.3972 305° West 249 287 10,400 3,471 Climbing Washington Center
Thu 08:27:19 PM 36.9581 -76.4808 307° West 277 319 13,000 2,800 Climbing Washington Center
Thu 08:28:19 PM 37.0158 -76.5750 308° West 314 361 16,000 1,866 Climbing Washington Center
Thu 08:29:18 PM 37.0775 -76.6747 308° West 342 394 16,700 504 Climbing Washington Center
Thu 08:30:18 PM 37.1731 -76.7128 342° North 347 399 17,000 149 Climbing Washington Center
Thu 08:31:19 PM 37.2708 -76.7456 345° North 347 399 17,000  Level Washington Center
Thu 08:32:17 PM 37.3686 -76.7783 345° North 357 411 17,000  Level Washington Center
Thu 08:33:18 PM 37.4786 -76.8167 345° North 362 417 17,000  Level Washington Center
Thu 08:34:19 PM 37.5764 -76.8522 344° North 362 417 17,000  Level Washington Center
Thu 08:35:17 PM 37.6742 -76.8853 345° North 362 417 17,000  Level Washington Center
Thu 08:36:18 PM 37.7717 -76.9186 345° North 362 417 17,000  Level Washington Center
Thu 08:37:18 PM 37.8694 -76.9569 343° North 362 417 17,000  Level Washington Center
Thu 08:38:19 PM 37.9669 -76.9903 345° North 362 417 17,000  Level Washington Center
Thu 08:39:17 PM 38.0667 -77.0264 344° North 362 417 17,000  Level Washington Center
Thu 08:40:18 PM 38.1642 -77.0600 345° North 362 417 17,000 -347 Level Washington Center
Thu 08:41:18 PM 38.2597 -77.0964 343° North 362 417 16,300 -793 Descending Washington Center
Thu 08:42:19 PM 38.3456 -77.0689 14° North 342 394 15,400 -950 Descending Washington Center
Thu 08:43:18 PM 38.4217 -76.9778 43° Northeast 332 382 14,400 -1,361 Descending Washington Center
Thu 08:44:18 PM 38.4978 -76.8889 42° Northeast 351 404 12,700 -1,240 Descending Washington Center
Thu 08:45:19 PM 38.5675 -76.8025 44° Northeast 351 404 11,900 -1,109 Descending Washington Center
Thu 08:46:17 PM 38.6286 -76.7292 43° Northeast 330 380 10,500 -1,576 Descending Washington Center
Thu 08:47:17 PM 38.6875 -76.6608 42° Northeast 299 344 8,800 -1,636 Descending Washington Center
Thu 08:48:18 PM 38.7425 -76.5950 43° Northeast 284 327 7,200 -1,537 Descending Washington Center
Thu 08:49:18 PM 38.8053 -76.5400 34° Northeast 272 313 5,700 -1,477 Descending Washington Center
Thu 08:50:28 PM 38.8833 -76.5000 22° Northeast 253 291 4,000 -831 Descending Potomac TRACON
Thu 08:51:28 PM 38.9500 -76.5167 349° North 244 281 3,900 -150 Descending Potomac TRACON
Thu 08:52:28 PM 39.0167 -76.5500 339° North 216 249 3,700 -650 Descending Potomac TRACON
Thu 08:53:28 PM 39.0667 -76.5833 333° Northwest 170 196 2,600 -1,150 Descending Potomac TRACON
Thu 08:54:28 PM 39.1000 -76.6000 339° North 162 186 1,400 -900 Descending Potomac TRACON
Thu 08:55:28 PM 39.1333 -76.6333 322° Northwest 136 157 800 -600 Descending Potomac TRACON
Thu 08:57:00 PM 39.1667 -76.6667 339° North  Level FlightAware Approximate
Thu 09:04:00 PM 39.1754 -76.6683 339° North  Level Estimated
Thu 09:05:00 PM 39.1754 -76.6683 339° North  Level Estimated
Thu 09:06:00 PM 39.1754 -76.6683 339° North  Level Estimated

Login

Don't have an account? Register now (free) for customized features, flight alerts, and more!